sensor_id;sensor_type;location;lat;lon;timestamp;pressure;altitude;pressure_sealevel;temperature;humidity
28181;BME280;15464;50.988;10.318;2023-01-31T00:01:38;99359.75;;;2.56;91.43
28181;BME280;15464;50.988;10.318;2023-01-31T00:04:08;99367.41;;;2.61;90.98
28181;BME280;15464;50.988;10.318;2023-01-31T00:06:42;99356.78;;;2.64;90.34
28181;BME280;15464;50.988;10.318;2023-01-31T00:09:10;99360.75;;;2.54;90.99
28181;BME280;15464;50.988;10.318;2023-01-31T00:11:37;99352.16;;;2.50;90.01
28181;BME280;15464;50.988;10.318;2023-01-31T00:14:05;99353.25;;;2.46;90.17
28181;BME280;15464;50.988;10.318;2023-01-31T00:16:32;99350.50;;;2.49;88.98
28181;BME280;15464;50.988;10.318;2023-01-31T00:18:59;99347.03;;;2.49;88.90
28181;BME280;15464;50.988;10.318;2023-01-31T00:21:27;99367.69;;;2.55;86.88
28181;BME280;15464;50.988;10.318;2023-01-31T00:23:55;99366.09;;;2.51;87.20
28181;BME280;15464;50.988;10.318;2023-01-31T00:28:52;99371.63;;;2.44;86.78
28181;BME280;15464;50.988;10.318;2023-01-31T00:31:21;99376.75;;;2.48;86.28
28181;BME280;15464;50.988;10.318;2023-01-31T00:33:50;99391.03;;;2.40;86.90
28181;BME280;15464;50.988;10.318;2023-01-31T00:36:19;99391.81;;;2.42;85.79
28181;BME280;15464;50.988;10.318;2023-01-31T00:38:54;99386.84;;;2.36;85.92
28181;BME280;15464;50.988;10.318;2023-01-31T00:41:23;99397.31;;;2.36;85.87
28181;BME280;15464;50.988;10.318;2023-01-31T00:43:50;99396.53;;;2.34;85.97
28181;BME280;15464;50.988;10.318;2023-01-31T00:46:17;99394.44;;;2.42;85.39
28181;BME280;15464;50.988;10.318;2023-01-31T00:48:48;99388.28;;;2.43;85.45
28181;BME280;15464;50.988;10.318;2023-01-31T00:51:15;99385.38;;;2.50;84.07
28181;BME280;15464;50.988;10.318;2023-01-31T00:53:42;99389.75;;;2.49;83.76
28181;BME280;15464;50.988;10.318;2023-01-31T00:56:12;99399.16;;;2.53;83.80
28181;BME280;15464;50.988;10.318;2023-01-31T00:58:39;99397.53;;;2.51;84.81
28181;BME280;15464;50.988;10.318;2023-01-31T01:01:14;99396.63;;;2.52;85.01
28181;BME280;15464;50.988;10.318;2023-01-31T01:03:42;99401.78;;;2.53;85.24
28181;BME280;15464;50.988;10.318;2023-01-31T01:06:10;99400.66;;;2.59;85.13
28181;BME280;15464;50.988;10.318;2023-01-31T01:08:39;99405.75;;;2.62;85.11
28181;BME280;15464;50.988;10.318;2023-01-31T01:11:11;99420.53;;;2.63;85.81
28181;BME280;15464;50.988;10.318;2023-01-31T01:13:39;99425.06;;;2.59;86.56
28181;BME280;15464;50.988;10.318;2023-01-31T01:16:13;99430.25;;;2.61;87.44
28181;BME280;15464;50.988;10.318;2023-01-31T01:18:40;99441.13;;;2.52;90.58
28181;BME280;15464;50.988;10.318;2023-01-31T01:21:16;99452.94;;;2.41;93.17
28181;BME280;15464;50.988;10.318;2023-01-31T01:23:44;99449.16;;;2.28;94.60
28181;BME280;15464;50.988;10.318;2023-01-31T01:26:17;99454.13;;;2.14;97.31
28181;BME280;15464;50.988;10.318;2023-01-31T01:28:44;99445.25;;;1.98;99.67
28181;BME280;15464;50.988;10.318;2023-01-31T01:31:12;99439.09;;;1.99;99.81
28181;BME280;15464;50.988;10.318;2023-01-31T01:33:42;99436.75;;;1.93;100.00
28181;BME280;15464;50.988;10.318;2023-01-31T01:36:12;99441.25;;;1.89;100.00
28181;BME280;15464;50.988;10.318;2023-01-31T01:38:39;99439.63;;;1.87;100.00
28181;BME280;15464;50.988;10.318;2023-01-31T01:41:07;99437.00;;;1.87;100.00
28181;BME280;15464;50.988;10.318;2023-01-31T01:43:54;99432.75;;;1.84;100.00
28181;BME280;15464;50.988;10.318;2023-01-31T01:46:42;99444.91;;;1.85;100.00
28181;BME280;15464;50.988;10.318;2023-01-31T01:49:21;99453.56;;;1.87;100.00
28181;BME280;15464;50.988;10.318;2023-01-31T01:51:52;99449.28;;;1.85;100.00
28181;BME280;15464;50.988;10.318;2023-01-31T01:54:27;99465.22;;;1.79;100.00
28181;BME280;15464;50.988;10.318;2023-01-31T01:56:59;99462.41;;;1.83;100.00
28181;BME280;15464;50.988;10.318;2023-01-31T01:59:43;99462.38;;;1.85;100.00
28181;BME280;15464;50.988;10.318;2023-01-31T02:02:12;99454.47;;;1.86;100.00
28181;BME280;15464;50.988;10.318;2023-01-31T02:04:41;99462.31;;;1.86;100.00
28181;BME280;15464;50.988;10.318;2023-01-31T02:07:09;99464.84;;;1.88;100.00
28181;BME280;15464;50.988;10.318;2023-01-31T02:09:44;99464.56;;;1.94;99.93
28181;BME280;15464;50.988;10.318;2023-01-31T02:12:12;99457.41;;;1.99;99.26
28181;BME280;15464;50.988;10.318;2023-01-31T02:14:40;99448.38;;;2.06;97.56
28181;BME280;15464;50.988;10.318;2023-01-31T02:17:12;99457.16;;;2.05;97.79
28181;BME280;15464;50.988;10.318;2023-01-31T02:19:48;99472.69;;;2.08;97.37
28181;BME280;15464;50.988;10.318;2023-01-31T02:31:01;99493.25;;;2.17;96.52
28181;BME280;15464;50.988;10.318;2023-01-31T02:48:05;99505.94;;;2.26;93.56
28181;BME280;15464;50.988;10.318;2023-01-31T02:50:27;99507.38;;;2.33;92.22
28181;BME280;15464;50.988;10.318;2023-01-31T02:53:10;99508.16;;;2.35;91.36
28181;BME280;15464;50.988;10.318;2023-01-31T02:56:03;99503.06;;;2.32;92.14
28181;BME280;15464;50.988;10.318;2023-01-31T02:59:19;99505.75;;;2.31;92.28
28181;BME280;15464;50.988;10.318;2023-01-31T03:02:01;99508.28;;;2.32;91.23
28181;BME280;15464;50.988;10.318;2023-01-31T03:04:31;99512.41;;;2.38;90.68
28181;BME280;15464;50.988;10.318;2023-01-31T03:07:03;99503.84;;;2.34;90.56
28181;BME280;15464;50.988;10.318;2023-01-31T03:09:40;99507.44;;;2.32;90.83
28181;BME280;15464;50.988;10.318;2023-01-31T03:21:07;99510.41;;;2.24;89.97
28181;BME280;15464;50.988;10.318;2023-01-31T03:23:37;99517.47;;;2.22;89.56
28181;BME280;15464;50.988;10.318;2023-01-31T03:26:05;99520.88;;;2.24;89.57
28181;BME280;15464;50.988;10.318;2023-01-31T03:28:34;99517.19;;;2.28;87.62
28181;BME280;15464;50.988;10.318;2023-01-31T03:31:21;99522.53;;;2.25;88.26
28181;BME280;15464;50.988;10.318;2023-01-31T03:34:03;99527.06;;;2.22;88.30
28181;BME280;15464;50.988;10.318;2023-01-31T03:36:54;99520.94;;;2.23;88.48
28181;BME280;15464;50.988;10.318;2023-01-31T03:44:57;99523.59;;;2.21;87.61
28181;BME280;15464;50.988;10.318;2023-01-31T03:47:30;99528.03;;;2.19;88.06
28181;BME280;15464;50.988;10.318;2023-01-31T03:50:04;99518.41;;;2.20;87.84
28181;BME280;15464;50.988;10.318;2023-01-31T03:52:36;99517.47;;;2.22;87.55
28181;BME280;15464;50.988;10.318;2023-01-31T03:55:11;99515.63;;;2.24;87.78
28181;BME280;15464;50.988;10.318;2023-01-31T03:57:40;99519.16;;;2.23;87.58
28181;BME280;15464;50.988;10.318;2023-01-31T04:00:12;99511.47;;;2.19;87.64
28181;BME280;15464;50.988;10.318;2023-01-31T04:02:40;99512.47;;;2.16;88.13
28181;BME280;15464;50.988;10.318;2023-01-31T04:05:13;99511.38;;;2.22;87.75
28181;BME280;15464;50.988;10.318;2023-01-31T04:07:44;99503.78;;;2.16;89.45
28181;BME280;15464;50.988;10.318;2023-01-31T04:10:14;99514.31;;;2.14;89.38
28181;BME280;15464;50.988;10.318;2023-01-31T04:12:41;99505.69;;;2.12;89.22
28181;BME280;15464;50.988;10.318;2023-01-31T04:15:08;99513.59;;;2.11;89.92
28181;BME280;15464;50.988;10.318;2023-01-31T04:17:35;99514.63;;;2.07;89.96
28181;BME280;15464;50.988;10.318;2023-01-31T04:20:04;99504.03;;;2.10;89.45
28181;BME280;15464;50.988;10.318;2023-01-31T04:22:32;99508.63;;;2.05;90.44
28181;BME280;15464;50.988;10.318;2023-01-31T04:24:58;99513.84;;;2.05;90.75
28181;BME280;15464;50.988;10.318;2023-01-31T04:27:25;99507.13;;;1.99;90.64
28181;BME280;15464;50.988;10.318;2023-01-31T04:29:52;99506.25;;;1.98;90.94
28181;BME280;15464;50.988;10.318;2023-01-31T04:32:18;99516.78;;;1.97;91.78
28181;BME280;15464;50.988;10.318;2023-01-31T04:34:45;99501.78;;;2.00;91.87
28181;BME280;15464;50.988;10.318;2023-01-31T04:37:12;99505.41;;;1.98;92.20
28181;BME280;15464;50.988;10.318;2023-01-31T04:39:38;99506.31;;;1.97;93.13
28181;BME280;15464;50.988;10.318;2023-01-31T04:42:05;99500.94;;;2.00;92.91
28181;BME280;15464;50.988;10.318;2023-01-31T04:44:32;99492.31;;;1.98;92.48
28181;BME280;15464;50.988;10.318;2023-01-31T04:46:58;99491.47;;;1.97;93.15
28181;BME280;15464;50.988;10.318;2023-01-31T04:49:25;99492.44;;;1.95;93.23
28181;BME280;15464;50.988;10.318;2023-01-31T04:51:52;99492.31;;;1.98;92.54
28181;BME280;15464;50.988;10.318;2023-01-31T04:54:19;99500.44;;;1.92;92.83
28181;BME280;15464;50.988;10.318;2023-01-31T04:56:45;99496.09;;;1.91;92.32
28181;BME280;15464;50.988;10.318;2023-01-31T04:59:12;99498.72;;;1.91;93.00
28181;BME280;15464;50.988;10.318;2023-01-31T05:01:39;99501.34;;;1.91;93.16
28181;BME280;15464;50.988;10.318;2023-01-31T05:04:07;99505.00;;;1.87;92.66
28181;BME280;15464;50.988;10.318;2023-01-31T05:06:34;99504.91;;;1.88;92.19
28181;BME280;15464;50.988;10.318;2023-01-31T05:09:01;99497.94;;;1.89;92.13
28181;BME280;15464;50.988;10.318;2023-01-31T05:11:28;99495.25;;;1.90;92.10
28181;BME280;15464;50.988;10.318;2023-01-31T05:13:55;99496.09;;;1.91;90.97
28181;BME280;15464;50.988;10.318;2023-01-31T05:16:21;99500.44;;;1.92;91.58
28181;BME280;15464;50.988;10.318;2023-01-31T05:18:48;99489.31;;;1.87;91.45
28181;BME280;15464;50.988;10.318;2023-01-31T05:21:16;99500.63;;;1.87;91.00
28181;BME280;15464;50.988;10.318;2023-01-31T05:23:43;99492.44;;;1.95;90.57
28181;BME280;15464;50.988;10.318;2023-01-31T05:26:10;99487.34;;;1.92;90.87
28181;BME280;15464;50.988;10.318;2023-01-31T05:28:37;99475.03;;;1.94;90.54
28181;BME280;15464;50.988;10.318;2023-01-31T05:31:06;99474.13;;;1.95;90.17
28181;BME280;15464;50.988;10.318;2023-01-31T05:33:34;99482.78;;;1.97;89.38
28181;BME280;15464;50.988;10.318;2023-01-31T05:36:02;99488.13;;;1.94;90.03
28181;BME280;15464;50.988;10.318;2023-01-31T05:38:29;99478.72;;;1.90;90.04
28181;BME280;15464;50.988;10.318;2023-01-31T05:40:56;99482.38;;;1.86;90.32
28181;BME280;15464;50.988;10.318;2023-01-31T05:43:23;99491.66;;;1.93;89.64
28181;BME280;15464;50.988;10.318;2023-01-31T05:45:50;99483.81;;;1.93;89.36
28181;BME280;15464;50.988;10.318;2023-01-31T05:48:16;99493.44;;;1.92;89.93
28181;BME280;15464;50.988;10.318;2023-01-31T05:50:43;99490.72;;;1.94;89.07
28181;BME280;15464;50.988;10.318;2023-01-31T05:53:10;99493.34;;;1.94;88.54
28181;BME280;15464;50.988;10.318;2023-01-31T05:55:37;99501.19;;;1.94;88.97
28181;BME280;15464;50.988;10.318;2023-01-31T05:58:03;99504.75;;;1.93;89.10
28181;BME280;15464;50.988;10.318;2023-01-31T06:00:30;99502.19;;;1.91;89.66
28181;BME280;15464;50.988;10.318;2023-01-31T06:02:57;99504.00;;;1.89;89.95
28181;BME280;15464;50.988;10.318;2023-01-31T06:05:25;99504.81;;;1.91;89.79
28181;BME280;15464;50.988;10.318;2023-01-31T06:07:52;99511.66;;;1.94;89.82
28181;BME280;15464;50.988;10.318;2023-01-31T06:10:19;99517.75;;;1.94;89.97
28181;BME280;15464;50.988;10.318;2023-01-31T06:12:46;99517.56;;;1.99;89.07
28181;BME280;15464;50.988;10.318;2023-01-31T06:15:13;99514.97;;;1.99;89.41
28181;BME280;15464;50.988;10.318;2023-01-31T06:17:40;99516.72;;;1.98;89.46
28181;BME280;15464;50.988;10.318;2023-01-31T06:20:07;99520.09;;;2.00;89.20
28181;BME280;15464;50.988;10.318;2023-01-31T06:22:34;99519.09;;;2.05;88.41
28181;BME280;15464;50.988;10.318;2023-01-31T06:25:02;99513.84;;;2.05;89.19
28181;BME280;15464;50.988;10.318;2023-01-31T06:27:31;99513.25;;;1.98;89.17
28181;BME280;15464;50.988;10.318;2023-01-31T06:29:59;99508.88;;;1.98;89.72
28181;BME280;15464;50.988;10.318;2023-01-31T06:32:26;99511.19;;;2.06;89.06
28181;BME280;15464;50.988;10.318;2023-01-31T06:34:52;99495.72;;;2.00;89.41
28181;BME280;15464;50.988;10.318;2023-01-31T06:37:19;99498.31;;;2.00;88.93
28181;BME280;15464;50.988;10.318;2023-01-31T06:39:46;99500.81;;;2.03;89.32
28181;BME280;15464;50.988;10.318;2023-01-31T06:42:12;99506.13;;;2.01;89.45
28181;BME280;15464;50.988;10.318;2023-01-31T06:44:39;99501.78;;;2.00;89.70
28181;BME280;15464;50.988;10.318;2023-01-31T06:47:05;99504.50;;;1.99;89.90
28181;BME280;15464;50.988;10.318;2023-01-31T06:49:32;99506.16;;;2.00;89.04
28181;BME280;15464;50.988;10.318;2023-01-31T06:51:59;99506.16;;;2.00;89.61
28181;BME280;15464;50.988;10.318;2023-01-31T06:54:26;99500.03;;;2.01;88.83
28181;BME280;15464;50.988;10.318;2023-01-31T06:56:53;99501.78;;;2.00;89.32
28181;BME280;15464;50.988;10.318;2023-01-31T06:59:20;99501.09;;;1.97;88.97
28181;BME280;15464;50.988;10.318;2023-01-31T07:01:47;99496.69;;;1.97;88.87
28181;BME280;15464;50.988;10.318;2023-01-31T07:04:13;99493.19;;;1.98;88.75
28181;BME280;15464;50.988;10.318;2023-01-31T07:06:40;99496.69;;;1.97;88.97
28181;BME280;15464;50.988;10.318;2023-01-31T07:09:07;99494.78;;;2.01;88.11
28181;BME280;15464;50.988;10.318;2023-01-31T07:11:36;99498.31;;;2.00;88.71
28181;BME280;15464;50.988;10.318;2023-01-31T07:14:03;99494.03;;;1.99;88.74
28181;BME280;15464;50.988;10.318;2023-01-31T07:16:30;99503.97;;;2.11;88.02
28181;BME280;15464;50.988;10.318;2023-01-31T07:18:57;99519.78;;;2.08;88.24
28181;BME280;15464;50.988;10.318;2023-01-31T07:21:24;99524.81;;;2.13;87.96
28181;BME280;15464;50.988;10.318;2023-01-31T07:23:51;99521.50;;;2.09;88.42
28181;BME280;15464;50.988;10.318;2023-01-31T07:26:18;99517.78;;;2.15;88.15
28181;BME280;15464;50.988;10.318;2023-01-31T07:28:45;99530.59;;;2.21;87.78
28181;BME280;15464;50.988;10.318;2023-01-31T07:31:13;99519.94;;;2.25;86.92
28181;BME280;15464;50.988;10.318;2023-01-31T07:33:40;99520.06;;;2.22;87.78
28181;BME280;15464;50.988;10.318;2023-01-31T07:36:11;99517.50;;;2.21;88.39
28181;BME280;15464;50.988;10.318;2023-01-31T07:38:38;99515.03;;;2.18;88.86
28181;BME280;15464;50.988;10.318;2023-01-31T07:41:05;99511.47;;;2.19;89.40
28181;BME280;15464;50.988;10.318;2023-01-31T07:43:34;99502.59;;;2.23;88.93
28181;BME280;15464;50.988;10.318;2023-01-31T07:46:04;99507.97;;;2.20;89.07
28181;BME280;15464;50.988;10.318;2023-01-31T07:48:31;99502.59;;;2.23;88.69
28181;BME280;15464;50.988;10.318;2023-01-31T07:51:00;99507.63;;;2.27;88.82
28181;BME280;15464;50.988;10.318;2023-01-31T07:53:29;99503.31;;;2.26;88.49
28181;BME280;15464;50.988;10.318;2023-01-31T07:58:37;99501.59;;;2.25;89.26
28181;BME280;15464;50.988;10.318;2023-01-31T08:01:04;99499.94;;;2.24;89.41
28181;BME280;15464;50.988;10.318;2023-01-31T08:03:50;99498.06;;;2.26;88.71
28181;BME280;15464;50.988;10.318;2023-01-31T08:06:17;99491.88;;;2.29;88.82
28181;BME280;15464;50.988;10.318;2023-01-31T08:08:44;99494.44;;;2.30;89.41
28181;BME280;15464;50.988;10.318;2023-01-31T08:11:11;99492.72;;;2.29;89.80
28181;BME280;15464;50.988;10.318;2023-01-31T08:13:38;99493.50;;;2.31;89.91
28181;BME280;15464;50.988;10.318;2023-01-31T08:16:06;99487.34;;;2.32;89.31
28181;BME280;15464;50.988;10.318;2023-01-31T08:18:35;99495.03;;;2.37;90.15
28181;BME280;15464;50.988;10.318;2023-01-31T08:21:02;99484.63;;;2.35;90.03
28181;BME280;15464;50.988;10.318;2023-01-31T08:23:29;99492.25;;;2.40;89.75
28181;BME280;15464;50.988;10.318;2023-01-31T08:26:05;99481.84;;;2.38;90.38
28181;BME280;15464;50.988;10.318;2023-01-31T08:28:32;99488.50;;;2.46;90.59
28181;BME280;15464;50.988;10.318;2023-01-31T08:30:59;99480.66;;;2.46;90.63
28181;BME280;15464;50.988;10.318;2023-01-31T08:33:35;99471.91;;;2.47;90.66
28181;BME280;15464;50.988;10.318;2023-01-31T08:36:19;99472.09;;;2.42;91.06
28181;BME280;15464;50.988;10.318;2023-01-31T08:38:47;99457.09;;;2.46;91.34
28181;BME280;15464;50.988;10.318;2023-01-31T08:41:16;99453.44;;;2.50;91.47
28181;BME280;15464;50.988;10.318;2023-01-31T08:43:44;99458.69;;;2.50;91.03
28181;BME280;15464;50.988;10.318;2023-01-31T08:46:27;99455.22;;;2.49;91.31
28181;BME280;15464;50.988;10.318;2023-01-31T08:48:56;99450.91;;;2.48;90.61
28181;BME280;15464;50.988;10.318;2023-01-31T08:51:23;99448.06;;;2.53;91.08
28181;BME280;15464;50.988;10.318;2023-01-31T08:53:50;99440.84;;;2.58;91.17
28181;BME280;15464;50.988;10.318;2023-01-31T08:56:18;99440.44;;;2.67;91.19
28181;BME280;15464;50.988;10.318;2023-01-31T08:58:47;99438.59;;;2.69;91.08
28181;BME280;15464;50.988;10.318;2023-01-31T09:01:15;99444.81;;;2.66;90.78
28181;BME280;15464;50.988;10.318;2023-01-31T09:03:44;99444.63;;;2.71;91.05
28181;BME280;15464;50.988;10.318;2023-01-31T09:06:14;99437.75;;;2.68;90.61
28181;BME280;15464;50.988;10.318;2023-01-31T09:08:41;99427.19;;;2.70;91.22
28181;BME280;15464;50.988;10.318;2023-01-31T09:11:08;99432.53;;;2.68;90.66
28181;BME280;15464;50.988;10.318;2023-01-31T09:13:35;99441.13;;;2.70;91.28
28181;BME280;15464;50.988;10.318;2023-01-31T09:16:06;99429.81;;;2.70;90.75
28181;BME280;15464;50.988;10.318;2023-01-31T09:18:37;99427.97;;;2.72;90.98
28181;BME280;15464;50.988;10.318;2023-01-31T09:23:31;99420.63;;;2.80;91.04
28181;BME280;15464;50.988;10.318;2023-01-31T09:25:58;99415.69;;;2.74;90.59
28181;BME280;15464;50.988;10.318;2023-01-31T09:28:26;99413.81;;;2.76;90.94
28181;BME280;15464;50.988;10.318;2023-01-31T09:30:54;99413.69;;;2.79;90.95
28181;BME280;15464;50.988;10.318;2023-01-31T09:33:21;99404.91;;;2.80;91.09
28181;BME280;15464;50.988;10.318;2023-01-31T09:36:05;99395.84;;;2.87;91.01
28181;BME280;15464;50.988;10.318;2023-01-31T09:38:32;99393.69;;;2.95;90.70
28181;BME280;15464;50.988;10.318;2023-01-31T09:41:15;99403.88;;;3.01;90.85
28181;BME280;15464;50.988;10.318;2023-01-31T09:43:51;99387.53;;;2.96;90.36
28181;BME280;15464;50.988;10.318;2023-01-31T09:46:24;99388.34;;;2.98;90.28
28181;BME280;15464;50.988;10.318;2023-01-31T09:48:54;99384.78;;;2.99;89.87
28181;BME280;15464;50.988;10.318;2023-01-31T09:51:23;99390.94;;;2.98;89.78
28181;BME280;15464;50.988;10.318;2023-01-31T09:53:50;99392.00;;;2.94;90.04
28181;BME280;15464;50.988;10.318;2023-01-31T09:56:39;99404.06;;;2.98;90.25
28181;BME280;15464;50.988;10.318;2023-01-31T09:59:22;99400.50;;;2.99;90.44
28181;BME280;15464;50.988;10.318;2023-01-31T10:07:42;99379.97;;;2.90;90.79
28181;BME280;15464;50.988;10.318;2023-01-31T10:10:36;99378.91;;;2.94;90.18
28181;BME280;15464;50.988;10.318;2023-01-31T10:13:33;99382.31;;;2.96;90.47
28181;BME280;15464;50.988;10.318;2023-01-31T10:16:11;99361.97;;;3.01;90.61
28181;BME280;15464;50.988;10.318;2023-01-31T10:18:43;99357.44;;;3.05;89.84
28181;BME280;15464;50.988;10.318;2023-01-31T10:21:24;99346.13;;;3.04;89.81
28181;BME280;15464;50.988;10.318;2023-01-31T10:23:57;99347.81;;;3.05;89.62
28181;BME280;15464;50.988;10.318;2023-01-31T10:26:32;99364.38;;;3.06;89.78
28181;BME280;15464;50.988;10.318;2023-01-31T10:29:20;99355.81;;;3.02;89.19
28181;BME280;15464;50.988;10.318;2023-01-31T10:31:59;99347.66;;;3.08;89.46
28181;BME280;15464;50.988;10.318;2023-01-31T10:34:48;99348.72;;;3.04;88.74
28181;BME280;15464;50.988;10.318;2023-01-31T10:37:31;99347.66;;;3.08;89.51
28181;BME280;15464;50.988;10.318;2023-01-31T10:40:13;99352.97;;;3.07;89.29
28181;BME280;15464;50.988;10.318;2023-01-31T10:42:47;99351.06;;;3.10;88.49
28181;BME280;15464;50.988;10.318;2023-01-31T10:45:18;99351.06;;;3.10;88.79
28181;BME280;15464;50.988;10.318;2023-01-31T10:47:50;99347.72;;;3.07;88.83
28181;BME280;15464;50.988;10.318;2023-01-31T10:50:22;99338.94;;;3.08;88.61
28181;BME280;15464;50.988;10.318;2023-01-31T10:56:02;99321.06;;;3.16;88.05
28181;BME280;15464;50.988;10.318;2023-01-31T10:58:29;99319.31;;;3.16;87.53
28181;BME280;15464;50.988;10.318;2023-01-31T11:00:57;99322.16;;;3.12;88.35
28181;BME280;15464;50.988;10.318;2023-01-31T11:03:24;99313.44;;;3.11;88.41
28181;BME280;15464;50.988;10.318;2023-01-31T11:05:54;99296.88;;;3.11;88.08
28181;BME280;15464;50.988;10.318;2023-01-31T11:10:56;99293.09;;;3.16;87.21
28181;BME280;15464;50.988;10.318;2023-01-31T11:13:23;99301.88;;;3.15;87.53
28181;BME280;15464;50.988;10.318;2023-01-31T11:15:52;99294.94;;;3.14;87.44
28181;BME280;15464;50.988;10.318;2023-01-31T11:18:37;99292.25;;;3.16;87.49
28181;BME280;15464;50.988;10.318;2023-01-31T11:21:09;99286.03;;;3.18;86.80
28181;BME280;15464;50.988;10.318;2023-01-31T11:23:36;99275.38;;;3.21;87.37
28181;BME280;15464;50.988;10.318;2023-01-31T11:26:04;99280.59;;;3.21;87.78
28181;BME280;15464;50.988;10.318;2023-01-31T11:28:38;99272.59;;;3.24;86.73
28181;BME280;15464;50.988;10.318;2023-01-31T11:31:19;99256.78;;;3.26;87.27
28181;BME280;15464;50.988;10.318;2023-01-31T11:33:58;99241.59;;;3.33;87.01
28181;BME280;15464;50.988;10.318;2023-01-31T11:36:31;99238.34;;;3.28;86.26
28181;BME280;15464;50.988;10.318;2023-01-31T11:38:58;99245.91;;;3.34;86.10
28181;BME280;15464;50.988;10.318;2023-01-31T11:41:35;99242.38;;;3.35;86.32
28181;BME280;15464;50.988;10.318;2023-01-31T11:44:13;99231.09;;;3.33;86.48
28181;BME280;15464;50.988;10.318;2023-01-31T11:46:56;99219.38;;;3.40;86.28
28181;BME280;15464;50.988;10.318;2023-01-31T11:49:36;99215.06;;;3.39;85.74
28181;BME280;15464;50.988;10.318;2023-01-31T11:52:19;99215.06;;;3.39;86.32
28181;BME280;15464;50.988;10.318;2023-01-31T11:54:54;99200.03;;;3.42;85.77
28181;BME280;15464;50.988;10.318;2023-01-31T11:57:29;99194.59;;;3.45;85.62
28181;BME280;15464;50.988;10.318;2023-01-31T11:59:59;99187.13;;;3.38;86.50
28181;BME280;15464;50.988;10.318;2023-01-31T12:02:46;99183.28;;;3.45;86.40
28181;BME280;15464;50.988;10.318;2023-01-31T12:05:18;99185.56;;;3.51;86.48
28181;BME280;15464;50.988;10.318;2023-01-31T12:07:50;99185.22;;;3.41;86.13
28181;BME280;15464;50.988;10.318;2023-01-31T12:10:41;99181.09;;;3.53;86.99
28181;BME280;15464;50.988;10.318;2023-01-31T12:13:18;99164.84;;;3.46;87.05
28181;BME280;15464;50.988;10.318;2023-01-31T12:15:52;99158.75;;;3.46;87.56
28181;BME280;15464;50.988;10.318;2023-01-31T12:18:47;99145.91;;;3.57;88.07
28181;BME280;15464;50.988;10.318;2023-01-31T12:26:48;99144.53;;;3.34;90.53
28181;BME280;15464;50.988;10.318;2023-01-31T12:46:54;99150.59;;;2.84;94.49
28181;BME280;15464;50.988;10.318;2023-01-31T12:53:03;99127.19;;;2.99;94.06
28181;BME280;15464;50.988;10.318;2023-01-31T13:06:04;99112.38;;;2.98;92.57
28181;BME280;15464;50.988;10.318;2023-01-31T13:08:34;99128.72;;;3.03;92.31
28181;BME280;15464;50.988;10.318;2023-01-31T13:11:16;99131.72;;;2.95;91.67
28181;BME280;15464;50.988;10.318;2023-01-31T13:13:53;99127.56;;;2.91;91.97
28181;BME280;15464;50.988;10.318;2023-01-31T13:16:31;99124.94;;;2.91;91.71
28181;BME280;15464;50.988;10.318;2023-01-31T13:19:02;99115.25;;;2.93;91.57
28181;BME280;15464;50.988;10.318;2023-01-31T13:21:34;99112.63;;;2.93;91.61
28181;BME280;15464;50.988;10.318;2023-01-31T13:24:11;99117.69;;;2.96;90.97
28181;BME280;15464;50.988;10.318;2023-01-31T13:26:44;99124.78;;;2.94;90.58
28181;BME280;15464;50.988;10.318;2023-01-31T13:29:21;99121.22;;;2.95;91.40
28181;BME280;15464;50.988;10.318;2023-01-31T13:32:11;99119.22;;;3.00;91.62
28181;BME280;15464;50.988;10.318;2023-01-31T13:34:54;99090.72;;;2.94;92.08
28181;BME280;15464;50.988;10.318;2023-01-31T13:37:23;99087.25;;;2.94;92.90
28181;BME280;15464;50.988;10.318;2023-01-31T13:40:17;99095.56;;;3.02;93.14
28181;BME280;15464;50.988;10.318;2023-01-31T13:42:45;99082.75;;;3.13;92.62
28181;BME280;15464;50.988;10.318;2023-01-31T13:45:23;99088.69;;;3.16;92.30
28181;BME280;15464;50.988;10.318;2023-01-31T13:47:58;99082.91;;;3.10;92.25
28181;BME280;15464;50.988;10.318;2023-01-31T13:50:45;99094.56;;;3.04;91.51
28181;BME280;15464;50.988;10.318;2023-01-31T13:53:18;99087.31;;;3.09;92.24
28181;BME280;15464;50.988;10.318;2023-01-31T13:55:47;99090.84;;;3.08;92.04
28181;BME280;15464;50.988;10.318;2023-01-31T13:58:20;99088.75;;;3.15;91.73
28181;BME280;15464;50.988;10.318;2023-01-31T14:00:50;99075.72;;;3.13;91.32
28181;BME280;15464;50.988;10.318;2023-01-31T14:03:24;99073.88;;;3.15;91.66
28181;BME280;15464;50.988;10.318;2023-01-31T14:13:47;99082.00;;;3.27;91.41
28181;BME280;15464;50.988;10.318;2023-01-31T14:16:37;99098.06;;;3.20;91.56
28181;BME280;15464;50.988;10.318;2023-01-31T14:32:43;99091.91;;;3.21;92.15
28181;BME280;15464;50.988;10.318;2023-01-31T14:37:54;99080.75;;;3.18;92.78
28181;BME280;15464;50.988;10.318;2023-01-31T14:40:29;99098.06;;;3.20;92.79
28181;BME280;15464;50.988;10.318;2023-01-31T14:46:13;99080.63;;;3.19;93.45
28181;BME280;15464;50.988;10.318;2023-01-31T15:01:55;99074.03;;;3.12;95.48
28181;BME280;15464;50.988;10.318;2023-01-31T15:04:24;99087.13;;;3.12;96.19
28181;BME280;15464;50.988;10.318;2023-01-31T15:06:53;99082.31;;;3.05;95.89
28181;BME280;15464;50.988;10.318;2023-01-31T15:11:54;99085.34;;;2.97;97.65
28181;BME280;15464;50.988;10.318;2023-01-31T15:14:41;99081.88;;;2.97;98.21
28181;BME280;15464;50.988;10.318;2023-01-31T15:17:23;99087.19;;;2.95;98.51
28181;BME280;15464;50.988;10.318;2023-01-31T15:20:04;99088.28;;;2.91;98.87
28181;BME280;15464;50.988;10.318;2023-01-31T15:22:40;99093.66;;;2.88;98.93
28181;BME280;15464;50.988;10.318;2023-01-31T15:25:22;99083.88;;;2.92;98.89
28181;BME280;15464;50.988;10.318;2023-01-31T15:27:54;99078.56;;;2.93;99.21
28181;BME280;15464;50.988;10.318;2023-01-31T15:30:22;99080.09;;;2.97;99.33
28181;BME280;15464;50.988;10.318;2023-01-31T15:33:29;99081.00;;;2.96;99.42
28181;BME280;15464;50.988;10.318;2023-01-31T15:38:48;99082.72;;;2.97;99.15
28181;BME280;15464;50.988;10.318;2023-01-31T15:41:19;99088.88;;;2.96;99.00
28181;BME280;15464;50.988;10.318;2023-01-31T15:43:55;99075.00;;;2.94;98.85